createdAt,value
2022-12-11T00:03:27.315Z,11.82
2022-12-11T00:07:29.476Z,12.48
2022-12-11T00:11:31.565Z,11.82
2022-12-11T00:15:33.608Z,12.75
2022-12-11T00:19:35.673Z,11.90
2022-12-11T00:23:38.268Z,11.25
2022-12-11T00:27:40.351Z,11.20
2022-12-11T00:31:42.740Z,11.88
2022-12-11T00:35:48.061Z,12.23
2022-12-11T00:39:50.074Z,11.80
2022-12-11T00:43:52.126Z,13.55
2022-12-11T00:47:55.434Z,12.45
2022-12-11T00:51:57.522Z,11.45
2022-12-11T00:55:59.535Z,11.25
2022-12-11T01:00:01.640Z,11.50
2022-12-11T01:04:03.738Z,13.82
2022-12-11T01:08:06.315Z,14.63
2022-12-11T01:12:08.385Z,15.10
2022-12-11T01:16:13.124Z,14.00
2022-12-11T01:20:15.969Z,15.65
2022-12-11T01:24:18.132Z,15.82
2022-12-11T01:28:20.168Z,15.32
2022-12-11T01:32:22.524Z,15.05
2022-12-11T01:36:24.960Z,14.45
2022-12-11T01:40:27.275Z,15.15
2022-12-11T01:44:29.264Z,14.55
2022-12-11T01:48:32.950Z,14.70
2022-12-11T01:52:36.469Z,14.75
2022-12-11T01:56:42.152Z,14.77
2022-12-11T02:00:44.480Z,14.07
2022-12-11T02:04:47.347Z,15.30
2022-12-11T02:08:49.412Z,15.18
2022-12-11T02:13:01.880Z,15.27
2022-12-11T02:17:15.995Z,14.90
2022-12-11T02:21:42.485Z,14.13
2022-12-11T02:26:32.626Z,13.98
2022-12-11T02:30:37.068Z,13.27
2022-12-11T02:34:49.265Z,12.82
2022-12-11T02:38:54.555Z,12.90
2022-12-11T02:43:01.130Z,14.48
2022-12-11T02:47:05.595Z,14.80
2022-12-11T02:51:10.259Z,13.60
2022-12-11T02:55:15.620Z,13.23
2022-12-11T02:59:26.172Z,14.13
2022-12-11T03:03:29.854Z,13.95
2022-12-11T03:07:36.432Z,13.80
2022-12-11T03:11:38.424Z,16.38
2022-12-11T03:15:59.592Z,18.02
2022-12-11T03:20:01.554Z,17.35
2022-12-11T03:24:21.184Z,17.83
2022-12-11T03:28:30.415Z,16.63
2022-12-11T03:32:43.113Z,17.23
2022-12-11T03:36:49.339Z,16.95
2022-12-11T03:40:57.467Z,16.90
2022-12-11T03:45:01.868Z,17.27
2022-12-11T03:49:17.291Z,18.48
2022-12-11T03:53:20.570Z,17.70
2022-12-11T03:57:25.811Z,18.50
2022-12-11T04:01:27.955Z,18.42
2022-12-11T04:05:29.955Z,18.10
2022-12-11T04:09:32.163Z,18.83
2022-12-11T04:13:34.155Z,21.25
2022-12-11T04:17:55.522Z,18.95
2022-12-11T04:22:16.277Z,17.13
2022-12-11T04:26:20.173Z,19.02
2022-12-11T04:30:29.344Z,19.40
2022-12-11T04:34:34.536Z,18.75
2022-12-11T04:38:36.913Z,20.10
2022-12-11T04:42:38.980Z,19.05
2022-12-11T04:46:41.064Z,16.02
2022-12-11T04:50:43.079Z,14.77
2022-12-11T04:54:45.314Z,14.77
2022-12-11T04:58:48.323Z,15.15
2022-12-11T05:02:50.446Z,14.60
2022-12-11T05:06:52.616Z,14.70
2022-12-11T05:10:59.502Z,14.65
2022-12-11T05:15:01.570Z,14.30
2022-12-11T05:19:03.568Z,13.70
2022-12-11T05:23:05.629Z,15.85
2022-12-11T05:27:07.641Z,18.55
2022-12-11T05:31:15.786Z,19.13
2022-12-11T05:35:18.083Z,19.85
2022-12-11T05:39:20.462Z,17.50
2022-12-11T05:43:22.485Z,16.70
2022-12-11T05:47:25.497Z,14.90
2022-12-11T05:51:28.483Z,13.13
2022-12-11T05:55:33.885Z,14.77
2022-12-11T05:59:35.900Z,13.65
2022-12-11T06:03:38.325Z,13.90
2022-12-11T06:07:40.370Z,14.15
2022-12-11T06:11:42.663Z,12.55
2022-12-11T06:15:44.719Z,12.38
2022-12-11T06:19:46.767Z,14.35
2022-12-11T06:23:50.533Z,14.88
2022-12-11T06:27:52.549Z,15.32
2022-12-11T06:31:54.659Z,14.05
2022-12-11T06:35:57.205Z,12.88
2022-12-11T06:39:59.214Z,14.05
2022-12-11T06:44:01.246Z,17.15
2022-12-11T06:48:03.638Z,19.13
2022-12-11T06:52:06.117Z,18.85
2022-12-11T06:56:11.029Z,17.13
2022-12-11T07:00:13.949Z,15.00
2022-12-11T07:04:16.004Z,20.00
2022-12-11T07:08:18.169Z,18.92
2022-12-11T07:12:20.256Z,20.50
2022-12-11T07:16:22.397Z,19.30
2022-12-11T07:20:24.554Z,20.35
2022-12-11T07:24:26.720Z,18.70
2022-12-11T07:28:28.713Z,20.80
2022-12-11T07:32:30.806Z,20.83
2022-12-11T07:36:34.344Z,20.20
2022-12-11T07:40:36.785Z,20.02
2022-12-11T07:44:38.811Z,20.10
2022-12-11T07:48:46.307Z,19.05
2022-12-11T07:52:51.061Z,17.92
2022-12-11T07:56:54.051Z,18.95
2022-12-11T08:00:56.305Z,15.70
2022-12-11T08:04:58.344Z,17.65
2022-12-11T08:09:02.030Z,15.50
2022-12-11T08:13:04.128Z,16.85
2022-12-11T08:17:06.196Z,18.90
2022-12-11T08:21:10.067Z,17.65
2022-12-11T08:25:12.529Z,14.55
2022-12-11T08:29:15.045Z,16.40
2022-12-11T08:33:17.087Z,19.52
2022-12-11T08:37:19.187Z,18.52
2022-12-11T08:41:30.062Z,15.13
2022-12-11T08:45:32.730Z,14.77
2022-12-11T08:49:36.381Z,18.73
2022-12-11T08:53:39.511Z,17.73
2022-12-11T08:57:41.539Z,17.77
2022-12-11T09:01:43.731Z,14.73
2022-12-11T09:05:45.747Z,16.70
2022-12-11T09:09:47.897Z,15.73
2022-12-11T09:13:50.617Z,13.98
2022-12-11T09:17:52.833Z,17.55
2022-12-11T09:21:54.914Z,16.42
2022-12-11T09:25:57.155Z,17.05
2022-12-11T09:29:59.169Z,15.88
2022-12-11T09:34:07.609Z,15.18
2022-12-11T09:38:10.253Z,12.73
2022-12-11T09:42:31.176Z,14.65
2022-12-11T09:46:34.826Z,11.85
2022-12-11T09:50:37.037Z,13.35
2022-12-11T09:54:49.297Z,15.38
2022-12-11T09:59:32.057Z,14.75
2022-12-11T10:04:02.548Z,15.45
2022-12-11T10:08:13.658Z,16.98
2022-12-11T10:12:41.905Z,16.52
2022-12-11T10:16:47.055Z,17.10
2022-12-11T10:20:52.677Z,16.80
2022-12-11T10:25:10.529Z,13.77
2022-12-11T10:29:15.651Z,15.52
2022-12-11T10:33:27.300Z,11.98
2022-12-11T10:37:29.324Z,15.77
2022-12-11T10:41:38.822Z,17.85
2022-12-11T10:45:50.978Z,19.13
2022-12-11T10:49:58.985Z,16.90
2022-12-11T10:54:10.102Z,24.05
2022-12-11T10:58:19.261Z,30.00
2022-12-11T11:02:41.536Z,24.10
2022-12-11T11:06:43.865Z,21.77
2022-12-11T11:11:00.050Z,24.40
2022-12-11T11:15:05.287Z,26.08
2022-12-11T11:19:14.689Z,25.63
2022-12-11T11:23:19.661Z,23.17
2022-12-11T11:27:24.611Z,24.95
2022-12-11T11:31:35.406Z,22.90
2022-12-11T11:35:39.122Z,23.40
2022-12-11T11:39:48.006Z,21.92
2022-12-11T11:43:57.752Z,23.08
2022-12-11T11:48:52.115Z,35.72
2022-12-11T11:53:13.861Z,22.45
2022-12-11T11:57:27.008Z,24.02
2022-12-11T12:01:30.117Z,30.50
2022-12-11T12:05:55.367Z,30.75
2022-12-11T12:10:15.100Z,23.25
2022-12-11T12:19:32.604Z,22.55
2022-12-11T12:23:51.195Z,23.13
2022-12-11T12:28:30.847Z,21.42
2022-12-11T12:33:03.264Z,20.45
2022-12-11T12:37:18.862Z,20.83
2022-12-11T12:41:32.321Z,16.13
2022-12-11T12:45:41.976Z,19.80
2022-12-11T12:49:51.001Z,20.17
2022-12-11T12:53:57.183Z,17.90
2022-12-11T12:58:01.871Z,19.47
2022-12-11T13:02:05.099Z,17.70
2022-12-11T13:06:10.958Z,17.85
2022-12-11T13:10:36.141Z,16.55
2022-12-11T13:14:38.260Z,16.30
2022-12-11T13:18:42.113Z,14.02
2022-12-11T13:22:54.815Z,17.98
2022-12-11T13:27:07.677Z,20.02
2022-12-11T13:31:15.847Z,19.48
2022-12-11T13:35:18.310Z,18.90
2022-12-11T13:39:28.002Z,19.02
2022-12-11T13:43:32.406Z,18.65
2022-12-11T13:47:36.179Z,17.33
2022-12-11T13:51:38.926Z,19.67
2022-12-11T13:55:41.010Z,18.52
2022-12-11T13:59:52.867Z,19.63
2022-12-11T14:03:56.174Z,20.30
2022-12-11T14:08:02.785Z,20.63
2022-12-11T14:12:05.283Z,24.15
2022-12-11T14:16:07.726Z,19.70
2022-12-11T14:20:19.865Z,20.15
2022-12-11T14:24:21.943Z,19.63
2022-12-11T14:28:27.583Z,19.55
2022-12-11T14:32:38.306Z,21.88
2022-12-11T14:36:41.914Z,25.13
2022-12-11T14:40:49.519Z,19.23
2022-12-11T14:45:01.184Z,17.35
2022-12-11T14:49:07.894Z,19.25
2022-12-11T14:53:24.263Z,19.15
2022-12-11T14:57:29.166Z,20.98
2022-12-11T15:01:33.564Z,21.30
2022-12-11T15:05:40.819Z,20.75
2022-12-11T15:09:46.630Z,20.10
2022-12-11T15:14:00.556Z,19.13
2022-12-11T15:18:07.871Z,18.63
2022-12-11T15:22:16.441Z,18.10
2022-12-11T15:26:34.354Z,18.67
2022-12-11T15:30:36.539Z,19.48
2022-12-11T15:34:52.694Z,19.60
2022-12-11T15:38:54.953Z,20.50
2022-12-11T15:42:57.835Z,21.17
2022-12-11T15:46:59.899Z,20.50
2022-12-11T15:51:03.647Z,24.77
2022-12-11T15:55:06.007Z,25.40
2022-12-11T15:59:09.849Z,26.15
2022-12-11T16:03:18.317Z,21.95
2022-12-11T16:07:25.414Z,20.38
2022-12-11T16:11:27.412Z,21.15
2022-12-11T16:15:29.985Z,20.02
2022-12-11T16:19:32.134Z,20.60
2022-12-11T16:23:34.193Z,19.38
2022-12-11T16:27:36.385Z,19.92
2022-12-11T16:31:38.405Z,21.55
2022-12-11T16:35:41.926Z,19.33
2022-12-11T16:39:45.883Z,20.95
2022-12-11T16:43:47.928Z,21.08
2022-12-11T16:47:50.009Z,23.88
2022-12-11T16:51:52.028Z,21.65
2022-12-11T16:55:54.069Z,21.55
2022-12-11T16:59:56.118Z,22.17
2022-12-11T17:03:59.232Z,22.52
2022-12-11T17:08:01.498Z,20.15
2022-12-11T17:12:04.603Z,20.42
2022-12-11T17:16:09.232Z,19.85
2022-12-11T17:20:11.678Z,20.33
2022-12-11T17:24:13.687Z,21.10
2022-12-11T17:28:15.760Z,20.17
2022-12-11T17:32:18.446Z,21.52
2022-12-11T17:36:22.093Z,21.58
2022-12-11T17:40:24.217Z,20.10
2022-12-11T17:44:26.704Z,23.85
2022-12-11T17:48:28.890Z,23.13
2022-12-11T17:52:34.943Z,24.35
2022-12-11T17:56:38.466Z,21.35
2022-12-11T18:00:42.429Z,20.58
2022-12-11T18:04:44.495Z,21.88
2022-12-11T18:08:46.602Z,21.20
2022-12-11T18:12:48.611Z,19.73
2022-12-11T18:16:52.086Z,20.52
2022-12-11T18:20:54.142Z,20.63
2022-12-11T18:24:59.347Z,22.92
2022-12-11T18:29:01.955Z,22.08
2022-12-11T18:33:04.930Z,25.58
2022-12-11T18:37:07.240Z,26.05
2022-12-11T18:41:11.999Z,24.15
2022-12-11T18:45:15.365Z,24.23
2022-12-11T18:49:17.398Z,24.20
2022-12-11T18:53:19.598Z,23.85
2022-12-11T18:57:21.709Z,27.65
2022-12-11T19:01:26.732Z,23.23
2022-12-11T19:05:29.387Z,30.50
2022-12-11T19:09:35.416Z,26.70
2022-12-11T19:13:40.031Z,24.73
2022-12-11T19:17:43.198Z,23.98
2022-12-11T19:21:46.508Z,22.38
2022-12-11T19:25:48.985Z,23.30
2022-12-11T19:29:51.039Z,23.58
2022-12-11T19:33:53.485Z,22.00
2022-12-11T19:37:55.694Z,23.98
2022-12-11T19:41:57.810Z,23.75
2022-12-11T19:46:04.164Z,23.77
2022-12-11T19:50:06.760Z,23.08
2022-12-11T19:54:13.003Z,24.13
2022-12-11T19:58:15.512Z,23.60
2022-12-11T20:02:17.739Z,22.70
2022-12-11T20:06:19.898Z,21.35
2022-12-11T20:10:21.929Z,20.90
2022-12-11T20:14:26.265Z,23.92
2022-12-11T20:18:28.249Z,22.05
2022-12-11T20:22:30.324Z,22.50
2022-12-11T20:26:32.456Z,22.98
2022-12-11T20:30:34.649Z,22.63
2022-12-11T20:34:36.912Z,22.15
2022-12-11T20:38:39.717Z,22.98
2022-12-11T20:42:42.046Z,21.70
2022-12-11T20:46:44.098Z,22.52
2022-12-11T20:50:46.225Z,23.75
2022-12-11T20:54:48.249Z,21.48
2022-12-11T20:58:50.394Z,21.80
2022-12-11T21:02:52.454Z,20.73
2022-12-11T21:06:57.883Z,20.42
2022-12-11T21:10:59.993Z,24.05
2022-12-11T21:15:02.273Z,20.35
2022-12-11T21:19:05.020Z,22.25
2022-12-11T21:23:07.208Z,19.40
2022-12-11T21:27:09.399Z,19.42
2022-12-11T21:31:14.314Z,20.55
2022-12-11T21:35:16.620Z,23.85
2022-12-11T21:39:18.647Z,21.73
2022-12-11T21:43:21.181Z,20.73
2022-12-11T21:47:24.524Z,20.75
2022-12-11T21:51:35.729Z,20.45
2022-12-11T21:55:41.556Z,20.25
2022-12-11T21:59:43.560Z,19.77
2022-12-11T22:03:45.789Z,21.33
2022-12-11T22:07:48.173Z,19.52
2022-12-11T22:11:53.780Z,19.08
2022-12-11T22:16:00.043Z,18.08
2022-12-11T22:20:02.160Z,17.60
2022-12-11T22:24:04.894Z,19.10
2022-12-11T22:28:07.014Z,18.55
2022-12-11T22:32:09.104Z,18.85
2022-12-11T22:36:11.864Z,18.35
2022-12-11T22:40:14.538Z,17.35
2022-12-11T22:44:20.002Z,17.38
2022-12-11T22:48:22.039Z,18.33
2022-12-11T22:52:24.085Z,22.58
2022-12-11T22:56:26.159Z,20.85
2022-12-11T23:00:28.240Z,19.02
2022-12-11T23:04:30.636Z,19.55
2022-12-11T23:08:33.138Z,18.35
2022-12-11T23:12:36.227Z,21.40
2022-12-11T23:16:38.350Z,19.35
2022-12-11T23:20:40.395Z,18.95
2022-12-11T23:24:42.443Z,17.20
2022-12-11T23:28:45.421Z,17.73
2022-12-11T23:32:47.433Z,16.95
2022-12-11T23:36:49.477Z,17.38
2022-12-11T23:40:51.861Z,18.17
2022-12-11T23:44:53.866Z,17.77
2022-12-11T23:48:56.009Z,18.42
2022-12-11T23:52:58.012Z,15.98
2022-12-11T23:56:59.977Z,14.05
